sensor_id;sensor_type;location;lat;lon;timestamp;temperature;humidity
51863;DHT22;37900;52.996;6.278;2024-02-26T00:01:26;14.80;87.80
51863;DHT22;37900;52.996;6.278;2024-02-26T00:03:51;14.50;86.60
51863;DHT22;37900;52.996;6.278;2024-02-26T00:06:17;14.80;87.50
51863;DHT22;37900;52.996;6.278;2024-02-26T00:08:44;14.80;87.30
51863;DHT22;37900;52.996;6.278;2024-02-26T00:11:09;14.80;87.30
51863;DHT22;37900;52.996;6.278;2024-02-26T00:13:35;14.80;87.30
51863;DHT22;37900;52.996;6.278;2024-02-26T00:16:01;14.80;87.30
51863;DHT22;37900;52.996;6.278;2024-02-26T00:18:26;14.80;87.40
51863;DHT22;37900;52.996;6.278;2024-02-26T00:20:52;14.80;87.30
51863;DHT22;37900;52.996;6.278;2024-02-26T00:23:18;14.80;87.30
51863;DHT22;37900;52.996;6.278;2024-02-26T00:25:43;14.80;87.20
51863;DHT22;37900;52.996;6.278;2024-02-26T00:28:10;14.80;87.20
51863;DHT22;37900;52.996;6.278;2024-02-26T00:30:35;14.70;87.30
51863;DHT22;37900;52.996;6.278;2024-02-26T00:33:01;14.80;87.40
51863;DHT22;37900;52.996;6.278;2024-02-26T00:35:27;14.80;87.20
51863;DHT22;37900;52.996;6.278;2024-02-26T00:37:52;14.80;87.30
51863;DHT22;37900;52.996;6.278;2024-02-26T00:40:18;14.80;87.20
51863;DHT22;37900;52.996;6.278;2024-02-26T00:42:44;14.80;87.30
51863;DHT22;37900;52.996;6.278;2024-02-26T00:45:14;14.80;87.20
51863;DHT22;37900;52.996;6.278;2024-02-26T00:47:41;14.80;87.20
51863;DHT22;37900;52.996;6.278;2024-02-26T00:50:08;14.80;87.30
51863;DHT22;37900;52.996;6.278;2024-02-26T00:52:34;14.80;87.80
51863;DHT22;37900;52.996;6.278;2024-02-26T00:55:00;14.70;87.10
51863;DHT22;37900;52.996;6.278;2024-02-26T00:57:25;14.80;87.10
51863;DHT22;37900;52.996;6.278;2024-02-26T00:59:51;14.80;87.20
51863;DHT22;37900;52.996;6.278;2024-02-26T01:02:17;14.70;87.10
51863;DHT22;37900;52.996;6.278;2024-02-26T01:04:42;14.80;87.20
51863;DHT22;37900;52.996;6.278;2024-02-26T01:07:08;14.90;87.30
51863;DHT22;37900;52.996;6.278;2024-02-26T01:09:34;14.80;87.10
51863;DHT22;37900;52.996;6.278;2024-02-26T01:11:59;14.80;87.20
51863;DHT22;37900;52.996;6.278;2024-02-26T01:14:25;14.80;87.20
51863;DHT22;37900;52.996;6.278;2024-02-26T01:16:51;14.80;87.20
51863;DHT22;37900;52.996;6.278;2024-02-26T01:19:16;10.70;84.90
51863;DHT22;37900;52.996;6.278;2024-02-26T01:21:42;14.70;87.10
51863;DHT22;37900;52.996;6.278;2024-02-26T01:24:07;14.70;87.10
51863;DHT22;37900;52.996;6.278;2024-02-26T01:26:33;14.80;87.10
51863;DHT22;37900;52.996;6.278;2024-02-26T01:28:58;14.80;87.10
51863;DHT22;37900;52.996;6.278;2024-02-26T01:31:24;14.80;87.10
51863;DHT22;37900;52.996;6.278;2024-02-26T01:33:50;14.80;87.10
51863;DHT22;37900;52.996;6.278;2024-02-26T01:36:19;14.80;87.20
51863;DHT22;37900;52.996;6.278;2024-02-26T01:38:44;14.80;87.10
51863;DHT22;37900;52.996;6.278;2024-02-26T01:41:10;14.80;87.10
51863;DHT22;37900;52.996;6.278;2024-02-26T01:43:35;14.80;86.50
51863;DHT22;37900;52.996;6.278;2024-02-26T01:46:01;14.70;87.10
51863;DHT22;37900;52.996;6.278;2024-02-26T01:48:27;14.70;87.00
51863;DHT22;37900;52.996;6.278;2024-02-26T01:50:53;14.80;87.70
51863;DHT22;37900;52.996;6.278;2024-02-26T01:53:19;14.70;87.00
51863;DHT22;37900;52.996;6.278;2024-02-26T01:55:45;14.70;87.00
51863;DHT22;37900;52.996;6.278;2024-02-26T01:58:10;14.70;87.00
51863;DHT22;37900;52.996;6.278;2024-02-26T02:00:36;14.70;87.00
51863;DHT22;37900;52.996;6.278;2024-02-26T02:03:02;14.70;87.00
51863;DHT22;37900;52.996;6.278;2024-02-26T02:05:28;14.70;87.00
51863;DHT22;37900;52.996;6.278;2024-02-26T02:07:54;14.70;87.00
51863;DHT22;37900;52.996;6.278;2024-02-26T02:10:19;14.70;87.00
51863;DHT22;37900;52.996;6.278;2024-02-26T02:12:48;14.70;87.00
51863;DHT22;37900;52.996;6.278;2024-02-26T02:15:14;14.70;86.90
51863;DHT22;37900;52.996;6.278;2024-02-26T02:17:39;14.70;87.00
51863;DHT22;37900;52.996;6.278;2024-02-26T02:20:15;14.70;86.90
51863;DHT22;37900;52.996;6.278;2024-02-26T02:22:41;14.70;86.90
51863;DHT22;37900;52.996;6.278;2024-02-26T02:25:06;14.70;87.00
51863;DHT22;37900;52.996;6.278;2024-02-26T02:27:32;14.80;87.00
51863;DHT22;37900;52.996;6.278;2024-02-26T02:29:58;14.70;87.00
51863;DHT22;37900;52.996;6.278;2024-02-26T02:32:24;14.70;86.40
51863;DHT22;37900;52.996;6.278;2024-02-26T02:34:50;14.70;87.00
51863;DHT22;37900;52.996;6.278;2024-02-26T02:37:16;19.30;89.40
51863;DHT22;37900;52.996;6.278;2024-02-26T02:39:42;14.70;86.90
51863;DHT22;37900;52.996;6.278;2024-02-26T02:42:08;14.70;86.90
51863;DHT22;37900;52.996;6.278;2024-02-26T02:44:34;14.70;87.00
51863;DHT22;37900;52.996;6.278;2024-02-26T02:46:59;14.70;87.00
51863;DHT22;37900;52.996;6.278;2024-02-26T02:49:25;14.70;86.90
51863;DHT22;37900;52.996;6.278;2024-02-26T02:51:51;14.70;86.90
51863;DHT22;37900;52.996;6.278;2024-02-26T02:54:18;14.70;86.90
51863;DHT22;37900;52.996;6.278;2024-02-26T02:56:44;14.70;86.90
51863;DHT22;37900;52.996;6.278;2024-02-26T02:59:09;14.70;86.90
51863;DHT22;37900;52.996;6.278;2024-02-26T03:01:35;14.70;86.90
51863;DHT22;37900;52.996;6.278;2024-02-26T03:04:01;14.70;86.90
51863;DHT22;37900;52.996;6.278;2024-02-26T03:06:26;14.70;86.90
51863;DHT22;37900;52.996;6.278;2024-02-26T03:08:54;14.70;87.40
51863;DHT22;37900;52.996;6.278;2024-02-26T03:11:20;14.70;86.90
51863;DHT22;37900;52.996;6.278;2024-02-26T03:13:45;14.70;86.90
51863;DHT22;37900;52.996;6.278;2024-02-26T03:16:11;14.70;86.90
51863;DHT22;37900;52.996;6.278;2024-02-26T03:18:40;14.70;86.90
51863;DHT22;37900;52.996;6.278;2024-02-26T03:21:05;14.70;86.80
51863;DHT22;37900;52.996;6.278;2024-02-26T03:23:31;14.70;86.80
51863;DHT22;37900;52.996;6.278;2024-02-26T03:26:02;14.70;86.90
51863;DHT22;37900;52.996;6.278;2024-02-26T03:28:27;14.70;86.30
51863;DHT22;37900;52.996;6.278;2024-02-26T03:30:53;14.70;86.90
51863;DHT22;37900;52.996;6.278;2024-02-26T03:33:18;14.70;86.80
51863;DHT22;37900;52.996;6.278;2024-02-26T03:35:44;14.70;86.90
51863;DHT22;37900;52.996;6.278;2024-02-26T03:38:10;14.70;86.80
51863;DHT22;37900;52.996;6.278;2024-02-26T03:40:35;14.70;86.80
51863;DHT22;37900;52.996;6.278;2024-02-26T03:43:02;14.60;86.80
51863;DHT22;37900;52.996;6.278;2024-02-26T03:45:30;14.70;86.80
51863;DHT22;37900;52.996;6.278;2024-02-26T03:47:55;14.70;86.80
51863;DHT22;37900;52.996;6.278;2024-02-26T03:50:21;14.60;86.70
51863;DHT22;37900;52.996;6.278;2024-02-26T03:52:46;14.70;86.80
51863;DHT22;37900;52.996;6.278;2024-02-26T03:55:12;14.60;86.70
51863;DHT22;37900;52.996;6.278;2024-02-26T03:57:37;14.60;86.70
51863;DHT22;37900;52.996;6.278;2024-02-26T04:00:03;14.70;86.80
51863;DHT22;37900;52.996;6.278;2024-02-26T04:02:29;14.70;86.70
51863;DHT22;37900;52.996;6.278;2024-02-26T04:04:55;14.60;86.70
51863;DHT22;37900;52.996;6.278;2024-02-26T04:07:21;14.70;86.70
51863;DHT22;37900;52.996;6.278;2024-02-26T04:09:46;14.60;86.70
51863;DHT22;37900;52.996;6.278;2024-02-26T04:12:12;14.60;86.70
51863;DHT22;37900;52.996;6.278;2024-02-26T04:14:37;14.70;86.70
51863;DHT22;37900;52.996;6.278;2024-02-26T04:17:03;14.60;86.70
51863;DHT22;37900;52.996;6.278;2024-02-26T04:19:28;14.60;86.70
51863;DHT22;37900;52.996;6.278;2024-02-26T04:21:54;14.60;86.70
51863;DHT22;37900;52.996;6.278;2024-02-26T04:24:20;14.60;86.70
51863;DHT22;37900;52.996;6.278;2024-02-26T04:26:45;14.60;86.70
51863;DHT22;37900;52.996;6.278;2024-02-26T04:29:11;14.60;86.70
51863;DHT22;37900;52.996;6.278;2024-02-26T04:31:37;14.60;86.70
51863;DHT22;37900;52.996;6.278;2024-02-26T04:34:03;14.60;86.60
51863;DHT22;37900;52.996;6.278;2024-02-26T04:36:28;14.60;86.70
51863;DHT22;37900;52.996;6.278;2024-02-26T04:38:54;14.60;86.70
51863;DHT22;37900;52.996;6.278;2024-02-26T04:41:21;14.60;86.70
51863;DHT22;37900;52.996;6.278;2024-02-26T04:43:46;14.60;86.60
51863;DHT22;37900;52.996;6.278;2024-02-26T04:46:12;14.60;86.70
51863;DHT22;37900;52.996;6.278;2024-02-26T04:48:37;14.60;86.70
51863;DHT22;37900;52.996;6.278;2024-02-26T04:51:07;14.60;86.70
51863;DHT22;37900;52.996;6.278;2024-02-26T04:53:33;14.60;86.70
51863;DHT22;37900;52.996;6.278;2024-02-26T04:55:58;15.00;86.90
51863;DHT22;37900;52.996;6.278;2024-02-26T04:58:24;14.60;86.60
51863;DHT22;37900;52.996;6.278;2024-02-26T05:00:49;14.60;86.70
51863;DHT22;37900;52.996;6.278;2024-02-26T05:03:15;14.60;86.10
51863;DHT22;37900;52.996;6.278;2024-02-26T05:05:42;14.60;86.60
51863;DHT22;37900;52.996;6.278;2024-02-26T05:08:07;14.60;86.60
51863;DHT22;37900;52.996;6.278;2024-02-26T05:10:33;14.60;86.60
51863;DHT22;37900;52.996;6.278;2024-02-26T05:12:59;14.60;86.50
51863;DHT22;37900;52.996;6.278;2024-02-26T05:15:25;14.60;86.50
51863;DHT22;37900;52.996;6.278;2024-02-26T05:17:51;14.60;86.60
51863;DHT22;37900;52.996;6.278;2024-02-26T05:20:18;14.60;86.00
51863;DHT22;37900;52.996;6.278;2024-02-26T05:22:43;14.60;86.50
51863;DHT22;37900;52.996;6.278;2024-02-26T05:25:09;14.60;86.50
51863;DHT22;37900;52.996;6.278;2024-02-26T05:27:35;14.60;86.50
51863;DHT22;37900;52.996;6.278;2024-02-26T05:30:00;14.60;85.90
51863;DHT22;37900;52.996;6.278;2024-02-26T05:32:26;14.60;86.50
51863;DHT22;37900;52.996;6.278;2024-02-26T05:34:51;14.60;86.50
51863;DHT22;37900;52.996;6.278;2024-02-26T05:37:17;14.60;86.50
51863;DHT22;37900;52.996;6.278;2024-02-26T05:39:43;14.60;86.50
51863;DHT22;37900;52.996;6.278;2024-02-26T05:42:08;14.60;86.50
51863;DHT22;37900;52.996;6.278;2024-02-26T05:44:34;14.60;86.40
51863;DHT22;37900;52.996;6.278;2024-02-26T05:47:00;14.60;86.50
51863;DHT22;37900;52.996;6.278;2024-02-26T05:49:25;14.60;86.40
51863;DHT22;37900;52.996;6.278;2024-02-26T05:51:51;14.60;86.40
51863;DHT22;37900;52.996;6.278;2024-02-26T05:54:16;14.60;86.40
51863;DHT22;37900;52.996;6.278;2024-02-26T05:56:42;14.50;86.40
51863;DHT22;37900;52.996;6.278;2024-02-26T05:59:08;14.60;86.40
51863;DHT22;37900;52.996;6.278;2024-02-26T06:01:33;14.60;86.30
51863;DHT22;37900;52.996;6.278;2024-02-26T06:03:59;14.60;86.40
51863;DHT22;37900;52.996;6.278;2024-02-26T06:06:25;14.50;86.30
51863;DHT22;37900;52.996;6.278;2024-02-26T06:08:50;14.60;86.30
51863;DHT22;37900;52.996;6.278;2024-02-26T06:11:16;14.50;85.70
51863;DHT22;37900;52.996;6.278;2024-02-26T06:13:41;14.50;86.30
51863;DHT22;37900;52.996;6.278;2024-02-26T06:16:10;14.50;86.20
51863;DHT22;37900;52.996;6.278;2024-02-26T06:18:36;14.50;86.10
51863;DHT22;37900;52.996;6.278;2024-02-26T06:21:01;14.50;85.70
51863;DHT22;37900;52.996;6.278;2024-02-26T06:23:27;14.50;85.70
51863;DHT22;37900;52.996;6.278;2024-02-26T06:25:53;14.50;86.20
51863;DHT22;37900;52.996;6.278;2024-02-26T06:28:19;14.50;86.20
51863;DHT22;37900;52.996;6.278;2024-02-26T06:30:44;14.50;86.20
51863;DHT22;37900;52.996;6.278;2024-02-26T06:33:11;14.50;86.10
51863;DHT22;37900;52.996;6.278;2024-02-26T06:35:37;12.90;85.40
51863;DHT22;37900;52.996;6.278;2024-02-26T06:38:03;14.50;86.20
51863;DHT22;37900;52.996;6.278;2024-02-26T06:40:29;14.50;85.60
51863;DHT22;37900;52.996;6.278;2024-02-26T06:42:55;14.60;86.30
51863;DHT22;37900;52.996;6.278;2024-02-26T06:45:21;14.60;86.20
51863;DHT22;37900;52.996;6.278;2024-02-26T06:47:47;14.60;86.20
51863;DHT22;37900;52.996;6.278;2024-02-26T06:50:12;14.50;86.20
51863;DHT22;37900;52.996;6.278;2024-02-26T06:52:39;14.50;86.10
51863;DHT22;37900;52.996;6.278;2024-02-26T06:55:05;15.00;86.00
51863;DHT22;37900;52.996;6.278;2024-02-26T06:57:33;14.50;86.10
51863;DHT22;37900;52.996;6.278;2024-02-26T06:59:58;14.50;86.20
51863;DHT22;37900;52.996;6.278;2024-02-26T07:02:24;14.50;86.10
51863;DHT22;37900;52.996;6.278;2024-02-26T07:04:50;14.50;86.10
51863;DHT22;37900;52.996;6.278;2024-02-26T07:07:15;14.50;86.10
51863;DHT22;37900;52.996;6.278;2024-02-26T07:09:43;14.50;85.50
51863;DHT22;37900;52.996;6.278;2024-02-26T07:12:09;14.50;86.10
51863;DHT22;37900;52.996;6.278;2024-02-26T07:14:34;14.50;86.10
51863;DHT22;37900;52.996;6.278;2024-02-26T07:17:02;14.50;86.10
51863;DHT22;37900;52.996;6.278;2024-02-26T07:19:28;14.50;86.10
51863;DHT22;37900;52.996;6.278;2024-02-26T07:21:54;14.50;86.00
51863;DHT22;37900;52.996;6.278;2024-02-26T07:24:19;14.50;86.00
51863;DHT22;37900;52.996;6.278;2024-02-26T07:26:45;14.50;86.00
51863;DHT22;37900;52.996;6.278;2024-02-26T07:29:10;14.50;86.00
51863;DHT22;37900;52.996;6.278;2024-02-26T07:31:36;14.50;86.00
51863;DHT22;37900;52.996;6.278;2024-02-26T07:34:01;14.50;85.50
51863;DHT22;37900;52.996;6.278;2024-02-26T07:36:27;14.50;86.00
51863;DHT22;37900;52.996;6.278;2024-02-26T07:38:53;14.50;85.90
51863;DHT22;37900;52.996;6.278;2024-02-26T07:41:20;16.50;87.00
51863;DHT22;37900;52.996;6.278;2024-02-26T07:43:45;14.50;85.90
51863;DHT22;37900;52.996;6.278;2024-02-26T07:46:11;14.50;85.90
51863;DHT22;37900;52.996;6.278;2024-02-26T07:48:37;14.40;85.90
51863;DHT22;37900;52.996;6.278;2024-02-26T07:51:02;14.40;85.90
51863;DHT22;37900;52.996;6.278;2024-02-26T07:53:28;14.50;85.90
51863;DHT22;37900;52.996;6.278;2024-02-26T07:55:54;14.40;85.80
51863;DHT22;37900;52.996;6.278;2024-02-26T07:58:19;14.50;85.90
51863;DHT22;37900;52.996;6.278;2024-02-26T08:00:45;14.50;85.90
51863;DHT22;37900;52.996;6.278;2024-02-26T08:03:11;14.50;85.90
51863;DHT22;37900;52.996;6.278;2024-02-26T08:05:38;14.40;85.80
51863;DHT22;37900;52.996;6.278;2024-02-26T08:08:06;18.30;87.90
51863;DHT22;37900;52.996;6.278;2024-02-26T08:10:31;14.40;85.90
51863;DHT22;37900;52.996;6.278;2024-02-26T08:12:57;14.50;85.90
51863;DHT22;37900;52.996;6.278;2024-02-26T08:15:30;14.50;85.90
51863;DHT22;37900;52.996;6.278;2024-02-26T08:17:56;14.50;85.80
51863;DHT22;37900;52.996;6.278;2024-02-26T08:20:22;14.40;85.20
51863;DHT22;37900;52.996;6.278;2024-02-26T08:22:47;14.50;85.80
51863;DHT22;37900;52.996;6.278;2024-02-26T08:25:13;14.50;85.80
51863;DHT22;37900;52.996;6.278;2024-02-26T08:27:38;14.40;85.70
51863;DHT22;37900;52.996;6.278;2024-02-26T08:30:04;14.50;85.80
51863;DHT22;37900;52.996;6.278;2024-02-26T08:32:30;14.50;85.70
51863;DHT22;37900;52.996;6.278;2024-02-26T08:34:56;14.40;85.70
51863;DHT22;37900;52.996;6.278;2024-02-26T08:37:21;14.50;85.70
51863;DHT22;37900;52.996;6.278;2024-02-26T08:39:47;14.50;85.80
51863;DHT22;37900;52.996;6.278;2024-02-26T08:42:13;14.40;85.70
51863;DHT22;37900;52.996;6.278;2024-02-26T08:44:38;14.40;85.70
51863;DHT22;37900;52.996;6.278;2024-02-26T08:47:04;14.40;85.10
51863;DHT22;37900;52.996;6.278;2024-02-26T08:49:29;14.40;85.70
51863;DHT22;37900;52.996;6.278;2024-02-26T08:51:55;14.50;85.20
51863;DHT22;37900;52.996;6.278;2024-02-26T08:54:24;14.50;85.70
51863;DHT22;37900;52.996;6.278;2024-02-26T08:56:50;14.40;85.70
51863;DHT22;37900;52.996;6.278;2024-02-26T08:59:15;14.50;85.70
51863;DHT22;37900;52.996;6.278;2024-02-26T09:01:41;14.50;85.70
51863;DHT22;37900;52.996;6.278;2024-02-26T09:04:07;14.40;85.60
51863;DHT22;37900;52.996;6.278;2024-02-26T09:06:33;14.40;85.60
51863;DHT22;37900;52.996;6.278;2024-02-26T09:08:58;14.40;85.60
51863;DHT22;37900;52.996;6.278;2024-02-26T09:11:24;14.50;85.70
51863;DHT22;37900;52.996;6.278;2024-02-26T09:13:49;14.50;85.70
51863;DHT22;37900;52.996;6.278;2024-02-26T09:16:15;14.50;85.60
51863;DHT22;37900;52.996;6.278;2024-02-26T09:18:41;14.50;85.50
51863;DHT22;37900;52.996;6.278;2024-02-26T09:21:06;14.60;85.50
51863;DHT22;37900;52.996;6.278;2024-02-26T09:23:32;14.50;85.50
51863;DHT22;37900;52.996;6.278;2024-02-26T09:25:58;14.50;85.40
51863;DHT22;37900;52.996;6.278;2024-02-26T09:28:23;14.50;85.40
51863;DHT22;37900;52.996;6.278;2024-02-26T09:30:49;14.50;85.50
51863;DHT22;37900;52.996;6.278;2024-02-26T09:33:15;14.50;85.40
51863;DHT22;37900;52.996;6.278;2024-02-26T09:35:41;14.50;85.40
51863;DHT22;37900;52.996;6.278;2024-02-26T09:38:07;14.50;85.40
51863;DHT22;37900;52.996;6.278;2024-02-26T09:40:33;14.50;85.40
51863;DHT22;37900;52.996;6.278;2024-02-26T09:43:01;14.50;85.40
51863;DHT22;37900;52.996;6.278;2024-02-26T09:45:29;14.50;85.30
51863;DHT22;37900;52.996;6.278;2024-02-26T09:47:56;14.50;85.30
51863;DHT22;37900;52.996;6.278;2024-02-26T09:50:22;14.50;85.40
51863;DHT22;37900;52.996;6.278;2024-02-26T09:52:49;14.50;85.40
51863;DHT22;37900;52.996;6.278;2024-02-26T09:55:15;14.50;84.80
51863;DHT22;37900;52.996;6.278;2024-02-26T09:57:44;14.50;85.30
51863;DHT22;37900;52.996;6.278;2024-02-26T10:00:11;14.50;85.20
51863;DHT22;37900;52.996;6.278;2024-02-26T10:02:39;14.40;85.20
51863;DHT22;37900;52.996;6.278;2024-02-26T10:05:05;14.50;85.30
51863;DHT22;37900;52.996;6.278;2024-02-26T10:07:33;14.50;85.20
51863;DHT22;37900;52.996;6.278;2024-02-26T10:09:59;14.40;85.20
51863;DHT22;37900;52.996;6.278;2024-02-26T10:12:25;14.40;85.20
51863;DHT22;37900;52.996;6.278;2024-02-26T10:14:52;14.40;85.10
51863;DHT22;37900;52.996;6.278;2024-02-26T10:17:17;14.40;85.20
51863;DHT22;37900;52.996;6.278;2024-02-26T10:19:44;14.40;85.10
51863;DHT22;37900;52.996;6.278;2024-02-26T10:22:09;14.40;85.10
51863;DHT22;37900;52.996;6.278;2024-02-26T10:24:35;14.40;85.20
51863;DHT22;37900;52.996;6.278;2024-02-26T10:27:01;14.50;85.10
51863;DHT22;37900;52.996;6.278;2024-02-26T10:29:27;14.40;85.10
51863;DHT22;37900;52.996;6.278;2024-02-26T10:31:52;14.40;85.10
51863;DHT22;37900;52.996;6.278;2024-02-26T10:34:18;14.40;85.20
51863;DHT22;37900;52.996;6.278;2024-02-26T10:36:44;14.40;85.10
51863;DHT22;37900;52.996;6.278;2024-02-26T10:39:13;14.40;85.10
51863;DHT22;37900;52.996;6.278;2024-02-26T10:41:42;14.40;85.00
51863;DHT22;37900;52.996;6.278;2024-02-26T10:44:12;14.40;85.00
51863;DHT22;37900;52.996;6.278;2024-02-26T10:46:38;14.40;85.00
51863;DHT22;37900;52.996;6.278;2024-02-26T10:49:05;14.40;85.00
51863;DHT22;37900;52.996;6.278;2024-02-26T10:51:34;14.40;85.00
51863;DHT22;37900;52.996;6.278;2024-02-26T10:54:02;14.40;85.00
51863;DHT22;37900;52.996;6.278;2024-02-26T10:56:33;14.40;85.00
51863;DHT22;37900;52.996;6.278;2024-02-26T10:58:59;14.40;85.00
51863;DHT22;37900;52.996;6.278;2024-02-26T11:01:26;14.40;85.00
51863;DHT22;37900;52.996;6.278;2024-02-26T11:03:52;13.20;84.50
51863;DHT22;37900;52.996;6.278;2024-02-26T11:06:18;14.40;85.60
51863;DHT22;37900;52.996;6.278;2024-02-26T11:08:49;14.40;85.10
51863;DHT22;37900;52.996;6.278;2024-02-26T11:11:18;14.40;85.00
51863;DHT22;37900;52.996;6.278;2024-02-26T11:13:45;14.40;85.00
51863;DHT22;37900;52.996;6.278;2024-02-26T11:16:16;14.40;85.00
51863;DHT22;37900;52.996;6.278;2024-02-26T11:18:41;14.40;85.00
51863;DHT22;37900;52.996;6.278;2024-02-26T11:21:07;14.40;84.50
51863;DHT22;37900;52.996;6.278;2024-02-26T11:23:34;14.40;85.00
51863;DHT22;37900;52.996;6.278;2024-02-26T11:26:02;14.30;84.90
51863;DHT22;37900;52.996;6.278;2024-02-26T11:28:29;17.50;86.60
51863;DHT22;37900;52.996;6.278;2024-02-26T11:30:57;14.40;85.00
51863;DHT22;37900;52.996;6.278;2024-02-26T11:33:24;14.40;84.90
51863;DHT22;37900;52.996;6.278;2024-02-26T11:35:50;14.40;84.40
51863;DHT22;37900;52.996;6.278;2024-02-26T11:38:17;14.40;85.00
51863;DHT22;37900;52.996;6.278;2024-02-26T11:40:43;14.40;85.00
51863;DHT22;37900;52.996;6.278;2024-02-26T11:43:10;14.40;84.40
51863;DHT22;37900;52.996;6.278;2024-02-26T11:48:04;14.40;84.90
51863;DHT22;37900;52.996;6.278;2024-02-26T11:50:40;14.30;84.30
51863;DHT22;37900;52.996;6.278;2024-02-26T11:53:45;14.40;84.90
51863;DHT22;37900;52.996;6.278;2024-02-26T11:59:08;14.40;84.20
51863;DHT22;37900;52.996;6.278;2024-02-26T12:01:35;14.40;84.70
51863;DHT22;37900;52.996;6.278;2024-02-26T12:04:01;14.40;84.70
51863;DHT22;37900;52.996;6.278;2024-02-26T12:06:27;14.40;84.60
51863;DHT22;37900;52.996;6.278;2024-02-26T12:08:54;14.40;84.60
51863;DHT22;37900;52.996;6.278;2024-02-26T12:11:20;14.50;84.50
51863;DHT22;37900;52.996;6.278;2024-02-26T12:13:49;14.40;84.50
51863;DHT22;37900;52.996;6.278;2024-02-26T12:16:34;14.40;84.40
51863;DHT22;37900;52.996;6.278;2024-02-26T12:19:00;14.40;84.40
51863;DHT22;37900;52.996;6.278;2024-02-26T12:21:26;14.40;84.40
51863;DHT22;37900;52.996;6.278;2024-02-26T12:23:51;14.40;84.50
51863;DHT22;37900;52.996;6.278;2024-02-26T12:26:19;14.40;84.50
51863;DHT22;37900;52.996;6.278;2024-02-26T12:28:46;14.40;84.50
51863;DHT22;37900;52.996;6.278;2024-02-26T12:31:12;14.80;84.20
51863;DHT22;37900;52.996;6.278;2024-02-26T12:33:37;14.40;84.60
51863;DHT22;37900;52.996;6.278;2024-02-26T12:36:03;14.40;84.60
51863;DHT22;37900;52.996;6.278;2024-02-26T12:38:29;14.40;84.50
51863;DHT22;37900;52.996;6.278;2024-02-26T12:40:55;14.40;84.60
51863;DHT22;37900;52.996;6.278;2024-02-26T12:43:21;14.40;84.60
51863;DHT22;37900;52.996;6.278;2024-02-26T12:45:46;14.40;85.20
51863;DHT22;37900;52.996;6.278;2024-02-26T12:48:13;14.40;84.60
51863;DHT22;37900;52.996;6.278;2024-02-26T12:50:38;14.40;84.60
51863;DHT22;37900;52.996;6.278;2024-02-26T12:53:04;14.40;84.70
51863;DHT22;37900;52.996;6.278;2024-02-26T12:55:30;14.40;84.10
51863;DHT22;37900;52.996;6.278;2024-02-26T12:57:59;14.40;84.60
51863;DHT22;37900;52.996;6.278;2024-02-26T13:00:25;14.40;84.70
51863;DHT22;37900;52.996;6.278;2024-02-26T13:02:51;14.40;84.60
51863;DHT22;37900;52.996;6.278;2024-02-26T13:05:20;14.40;84.70
51863;DHT22;37900;52.996;6.278;2024-02-26T13:07:46;14.40;84.60
51863;DHT22;37900;52.996;6.278;2024-02-26T13:10:15;14.40;84.70
51863;DHT22;37900;52.996;6.278;2024-02-26T13:12:46;14.40;84.70
51863;DHT22;37900;52.996;6.278;2024-02-26T13:15:16;14.40;84.70
51863;DHT22;37900;52.996;6.278;2024-02-26T13:17:42;14.40;84.60
51863;DHT22;37900;52.996;6.278;2024-02-26T13:20:08;14.40;84.70
51863;DHT22;37900;52.996;6.278;2024-02-26T13:22:34;14.40;84.70
51863;DHT22;37900;52.996;6.278;2024-02-26T13:25:00;14.40;84.80
51863;DHT22;37900;52.996;6.278;2024-02-26T13:27:28;14.40;84.20
51863;DHT22;37900;52.996;6.278;2024-02-26T13:30:12;14.40;84.70
51863;DHT22;37900;52.996;6.278;2024-02-26T13:32:39;14.40;84.70
51863;DHT22;37900;52.996;6.278;2024-02-26T13:35:08;14.40;84.70
51863;DHT22;37900;52.996;6.278;2024-02-26T13:37:35;14.30;84.60
51863;DHT22;37900;52.996;6.278;2024-02-26T13:40:04;14.40;84.70
51863;DHT22;37900;52.996;6.278;2024-02-26T13:42:30;14.30;84.70
51863;DHT22;37900;52.996;6.278;2024-02-26T13:44:56;14.40;84.80
51863;DHT22;37900;52.996;6.278;2024-02-26T13:47:21;14.40;84.80
51863;DHT22;37900;52.996;6.278;2024-02-26T13:49:47;14.40;84.80
51863;DHT22;37900;52.996;6.278;2024-02-26T13:52:13;14.40;84.80
51863;DHT22;37900;52.996;6.278;2024-02-26T13:54:39;14.40;84.20
51863;DHT22;37900;52.996;6.278;2024-02-26T13:57:06;14.40;84.80
51863;DHT22;37900;52.996;6.278;2024-02-26T13:59:31;14.40;84.70
51863;DHT22;37900;52.996;6.278;2024-02-26T14:01:57;14.40;84.80
51863;DHT22;37900;52.996;6.278;2024-02-26T14:04:22;14.30;84.80
51863;DHT22;37900;52.996;6.278;2024-02-26T14:06:48;14.40;84.90
51863;DHT22;37900;52.996;6.278;2024-02-26T14:09:14;14.40;84.80
51863;DHT22;37900;52.996;6.278;2024-02-26T14:11:47;14.40;84.80
51863;DHT22;37900;52.996;6.278;2024-02-26T14:14:12;14.40;84.80
51863;DHT22;37900;52.996;6.278;2024-02-26T14:16:38;14.40;84.80
51863;DHT22;37900;52.996;6.278;2024-02-26T14:19:04;14.40;84.80
51863;DHT22;37900;52.996;6.278;2024-02-26T14:21:29;14.40;84.90
51863;DHT22;37900;52.996;6.278;2024-02-26T14:23:55;14.30;84.80
51863;DHT22;37900;52.996;6.278;2024-02-26T14:26:21;14.30;84.80
51863;DHT22;37900;52.996;6.278;2024-02-26T14:28:47;14.30;84.80
51863;DHT22;37900;52.996;6.278;2024-02-26T14:31:13;14.30;84.90
51863;DHT22;37900;52.996;6.278;2024-02-26T14:33:38;15.00;85.20
51863;DHT22;37900;52.996;6.278;2024-02-26T14:36:06;14.40;84.80
51863;DHT22;37900;52.996;6.278;2024-02-26T14:38:31;14.30;84.80
51863;DHT22;37900;52.996;6.278;2024-02-26T14:40:57;14.30;84.80
51863;DHT22;37900;52.996;6.278;2024-02-26T14:43:22;14.30;84.80
51863;DHT22;37900;52.996;6.278;2024-02-26T14:45:48;14.30;84.30
51863;DHT22;37900;52.996;6.278;2024-02-26T14:48:13;14.50;84.90
51863;DHT22;37900;52.996;6.278;2024-02-26T14:50:39;14.30;84.80
51863;DHT22;37900;52.996;6.278;2024-02-26T14:53:05;14.30;84.80
51863;DHT22;37900;52.996;6.278;2024-02-26T14:55:30;14.40;84.80
51863;DHT22;37900;52.996;6.278;2024-02-26T14:57:56;14.30;84.90
51863;DHT22;37900;52.996;6.278;2024-02-26T15:00:21;14.30;84.90
51863;DHT22;37900;52.996;6.278;2024-02-26T15:02:47;14.30;84.80
51863;DHT22;37900;52.996;6.278;2024-02-26T15:05:12;12.60;83.90
51863;DHT22;37900;52.996;6.278;2024-02-26T15:07:38;14.30;84.90
51863;DHT22;37900;52.996;6.278;2024-02-26T15:10:06;14.30;84.90
51863;DHT22;37900;52.996;6.278;2024-02-26T15:12:32;14.30;84.90
51863;DHT22;37900;52.996;6.278;2024-02-26T15:14:57;14.30;84.90
51863;DHT22;37900;52.996;6.278;2024-02-26T15:17:23;14.30;84.90
51863;DHT22;37900;52.996;6.278;2024-02-26T15:19:49;14.30;84.90
51863;DHT22;37900;52.996;6.278;2024-02-26T15:22:15;14.30;84.90
51863;DHT22;37900;52.996;6.278;2024-02-26T15:24:43;14.40;85.00
51863;DHT22;37900;52.996;6.278;2024-02-26T15:27:09;14.30;84.90
51863;DHT22;37900;52.996;6.278;2024-02-26T15:29:36;14.30;84.90